createdAt,value
2023-03-01T00:06:10.714Z,9.24
2023-03-01T00:08:53.380Z,9.44
2023-03-01T01:01:01.911Z,9.55
2023-03-01T01:03:30.957Z,9.66
2023-03-01T01:19:41.819Z,9.61
2023-03-01T01:28:49.298Z,9.52
2023-03-01T01:31:18.629Z,9.56
2023-03-01T01:34:03.795Z,9.64
2023-03-01T01:36:50.200Z,9.69
2023-03-01T01:39:23.935Z,9.71
2023-03-01T01:41:55.573Z,9.90
2023-03-01T01:44:42.617Z,9.85
2023-03-01T01:47:36.889Z,9.70
2023-03-01T01:50:06.286Z,9.73
2023-03-01T01:55:32.733Z,9.68
2023-03-01T01:58:09.317Z,9.81
2023-03-01T02:00:41.774Z,9.82
2023-03-01T02:03:34.820Z,9.80
2023-03-01T02:09:28.008Z,9.70
2023-03-01T02:12:16.501Z,9.67
2023-03-01T02:15:09.030Z,9.60
2023-03-01T02:17:59.101Z,9.51
2023-03-01T02:20:50.334Z,9.48
2023-03-01T02:23:41.776Z,9.32
2023-03-01T03:06:55.009Z,9.58
2023-03-01T03:09:37.347Z,9.63
2023-03-01T03:12:10.454Z,9.71
2023-03-01T03:14:59.263Z,9.69
2023-03-01T03:17:32.770Z,9.69
2023-03-01T03:20:04.582Z,9.68
2023-03-01T03:28:04.184Z,9.61
2023-03-01T03:31:13.083Z,9.51
2023-03-01T03:39:19.224Z,9.50
2023-03-01T03:41:49.936Z,9.61
2023-03-01T03:44:29.449Z,9.58
2023-03-01T03:47:01.160Z,9.62
2023-03-01T03:49:28.209Z,9.49
2023-03-01T03:52:02.058Z,9.45
2023-03-01T03:54:44.744Z,9.40
2023-03-01T04:11:23.098Z,9.62
2023-03-01T04:14:02.487Z,9.53
2023-03-01T04:16:32.658Z,9.55
2023-03-01T04:19:03.422Z,9.54
2023-03-01T04:21:45.734Z,9.52
2023-03-01T04:38:08.904Z,9.45
2023-03-01T05:25:26.508Z,9.86
2023-03-01T05:28:12.937Z,9.66
2023-03-01T06:35:31.662Z,9.60
2023-03-01T06:38:02.122Z,9.71
2023-03-01T06:40:58.096Z,9.53
2023-03-01T06:44:10.336Z,9.75
2023-03-01T06:46:58.410Z,10.09
2023-03-01T06:49:48.723Z,10.27
2023-03-01T06:58:06.131Z,10.81
2023-03-01T07:06:25.116Z,10.83
2023-03-01T07:08:55.792Z,10.93
2023-03-01T07:11:44.713Z,10.79
2023-03-01T07:14:30.505Z,10.44
2023-03-01T07:17:14.549Z,10.29
2023-03-01T07:19:48.499Z,10.27
2023-03-01T07:43:09.812Z,10.01
2023-03-01T07:46:21.331Z,9.99
2023-03-01T07:49:08.857Z,9.81
2023-03-01T07:51:38.398Z,9.77
2023-03-01T07:54:07.232Z,9.75
2023-03-01T07:56:55.892Z,9.95
2023-03-01T08:04:41.276Z,9.98
2023-03-01T08:07:09.287Z,10.03
2023-03-01T08:09:40.318Z,10.00
2023-03-01T08:15:11.252Z,9.86
2023-03-01T08:17:54.307Z,9.93
2023-03-01T08:20:41.512Z,9.82
2023-03-01T08:23:31.427Z,9.89
2023-03-01T08:26:38.744Z,9.87
2023-03-01T08:32:24.425Z,9.71
2023-03-01T08:35:07.561Z,9.66
2023-03-01T08:40:30.423Z,9.51
2023-03-01T08:43:02.402Z,9.41
2023-03-01T08:45:30.992Z,9.44
2023-03-01T08:48:18.901Z,9.39
2023-03-01T08:50:46.299Z,9.37
2023-03-01T08:53:13.872Z,9.36
2023-03-01T08:56:03.184Z,9.39
2023-03-01T08:58:31.060Z,9.46
2023-03-01T09:01:19.023Z,9.21
2023-03-01T09:03:46.676Z,9.27
2023-03-01T09:06:15.461Z,9.36
2023-03-01T09:08:53.599Z,9.44
2023-03-01T09:11:44.573Z,9.40
2023-03-01T09:14:17.403Z,9.40
2023-03-01T09:16:46.134Z,9.30
2023-03-01T09:22:15.953Z,9.42
2023-03-01T09:25:00.532Z,9.40
2023-03-01T09:27:34.580Z,9.53
2023-03-01T09:30:02.741Z,9.37
2023-03-01T09:32:50.230Z,9.13
2023-03-01T09:35:38.240Z,9.21
2023-03-01T09:38:21.071Z,9.25
2023-03-01T09:47:28.128Z,9.15
2023-03-01T09:50:00.693Z,9.06
2023-03-01T09:52:39.955Z,9.17
2023-03-01T09:58:36.223Z,9.06
2023-03-01T10:01:08.037Z,9.05
2023-03-01T10:04:00.652Z,8.97
2023-03-01T10:06:35.745Z,8.80
2023-03-01T10:09:08.695Z,8.83
2023-03-01T10:11:39.472Z,8.80
2023-03-01T10:20:57.804Z,8.99
2023-03-01T10:23:46.059Z,9.04
2023-03-01T10:26:34.924Z,9.11
2023-03-01T10:29:22.788Z,9.03
2023-03-01T10:32:18.816Z,8.81
2023-03-01T10:34:46.425Z,8.97
2023-03-01T10:40:59.207Z,9.16
2023-03-01T10:43:50.644Z,9.12
2023-03-01T10:46:37.567Z,9.23
2023-03-01T10:49:27.240Z,9.26
2023-03-01T10:52:01.210Z,9.25
2023-03-01T10:54:45.625Z,9.17
2023-03-01T10:57:41.330Z,9.18
2023-03-01T11:00:26.275Z,9.19
2023-03-01T11:02:59.821Z,9.22
2023-03-01T11:05:30.725Z,9.36
2023-03-01T11:07:59.281Z,9.25
2023-03-01T11:14:01.393Z,8.94
2023-03-01T11:20:15.235Z,9.08
2023-03-01T11:22:57.265Z,8.85
2023-03-01T11:25:27.366Z,8.92
2023-03-01T11:28:15.972Z,8.88
2023-03-01T11:31:20.876Z,8.89
2023-03-01T11:49:13.408Z,8.80
2023-03-01T11:51:57.668Z,8.71
2023-03-01T11:54:42.159Z,8.66
2023-03-01T11:57:15.025Z,8.63
2023-03-01T11:59:59.783Z,8.58
2023-03-01T12:02:34.062Z,8.79
2023-03-01T12:05:15.559Z,8.96
2023-03-01T12:07:53.903Z,8.75
2023-03-01T12:10:21.969Z,8.77
2023-03-01T12:12:59.977Z,8.75
2023-03-01T12:15:40.975Z,8.73
2023-03-01T12:18:13.733Z,8.64
2023-03-01T12:20:43.414Z,8.66
2023-03-01T12:23:28.596Z,8.62
2023-03-01T12:26:19.302Z,8.55
2023-03-01T12:28:53.259Z,8.50
2023-03-01T12:31:36.589Z,8.66
2023-03-01T12:34:25.064Z,8.67
2023-03-01T12:37:11.207Z,8.54
2023-03-01T12:39:57.801Z,8.51
2023-03-01T12:42:28.299Z,8.51
2023-03-01T12:45:27.616Z,8.40
2023-03-01T12:48:18.932Z,8.60
2023-03-01T12:50:53.599Z,8.64
2023-03-01T12:53:21.552Z,8.67
2023-03-01T12:55:49.426Z,8.67
2023-03-01T12:58:47.465Z,8.61
2023-03-01T13:01:40.104Z,8.78
2023-03-01T13:04:08.516Z,8.75
2023-03-01T13:06:43.690Z,8.71
2023-03-01T13:09:19.260Z,8.85
2023-03-01T13:11:47.633Z,8.73
2023-03-01T13:14:24.131Z,8.68
2023-03-01T13:16:55.117Z,8.75
2023-03-01T13:19:23.979Z,8.72
2023-03-01T13:21:55.784Z,8.87
2023-03-01T13:24:25.619Z,8.98
2023-03-01T13:27:11.989Z,8.75
2023-03-01T13:29:49.326Z,8.68
2023-03-01T13:32:23.538Z,8.87
2023-03-01T13:34:54.085Z,8.72
2023-03-01T13:37:41.134Z,8.93
2023-03-01T13:40:23.666Z,9.01
2023-03-01T13:43:04.670Z,8.81
2023-03-01T13:45:33.676Z,8.89
2023-03-01T13:48:04.709Z,8.80
2023-03-01T13:50:35.025Z,8.68
2023-03-01T13:53:05.478Z,8.54
2023-03-01T13:55:34.886Z,8.49
2023-03-01T13:58:04.710Z,8.57
2023-03-01T14:00:37.806Z,8.67
2023-03-01T14:03:10.236Z,8.75
2023-03-01T14:05:39.910Z,8.81
2023-03-01T14:08:21.467Z,8.56
2023-03-01T14:10:54.864Z,8.34
2023-03-01T14:13:30.782Z,8.49
2023-03-01T14:16:00.720Z,8.59
2023-03-01T14:18:59.941Z,8.60
2023-03-01T14:21:27.508Z,8.49
2023-03-01T14:23:55.492Z,8.37
2023-03-01T14:26:23.348Z,8.30
2023-03-01T14:28:51.340Z,8.20
2023-03-01T14:31:33.007Z,8.40
2023-03-01T14:34:04.324Z,8.30
2023-03-01T14:36:33.819Z,8.49
2023-03-01T14:39:06.376Z,8.47
2023-03-01T14:41:37.817Z,8.35
2023-03-01T14:44:24.066Z,8.39
2023-03-01T14:46:58.307Z,8.36
2023-03-01T14:49:31.463Z,8.23
2023-03-01T14:52:09.169Z,8.27
2023-03-01T14:54:50.929Z,8.39
2023-03-01T14:57:22.424Z,8.37
2023-03-01T14:59:51.523Z,8.37
2023-03-01T15:02:20.085Z,8.24
2023-03-01T15:04:57.594Z,8.25
2023-03-01T15:07:27.210Z,8.22
2023-03-01T15:09:55.308Z,8.36
2023-03-01T15:12:26.557Z,8.33
2023-03-01T15:15:03.334Z,8.34
2023-03-01T15:17:36.834Z,8.35
2023-03-01T15:20:07.082Z,8.33
2023-03-01T15:22:34.826Z,8.35
2023-03-01T15:25:02.986Z,8.31
2023-03-01T15:27:31.018Z,8.28
2023-03-01T15:30:00.405Z,8.34
2023-03-01T15:32:31.414Z,8.34
2023-03-01T15:34:59.497Z,8.47
2023-03-01T15:37:38.924Z,8.48
2023-03-01T15:40:20.348Z,8.49
2023-03-01T15:42:49.845Z,8.61
2023-03-01T15:45:21.634Z,8.69
2023-03-01T15:47:54.927Z,8.52
2023-03-01T15:50:24.142Z,8.59
2023-03-01T15:52:53.024Z,8.53
2023-03-01T15:55:21.169Z,8.66
2023-03-01T15:57:50.869Z,8.57
2023-03-01T16:00:19.869Z,8.54
2023-03-01T16:02:48.198Z,8.71
2023-03-01T16:05:20.102Z,8.55
2023-03-01T16:07:48.078Z,8.57
2023-03-01T16:10:16.742Z,8.61
2023-03-01T16:12:48.498Z,8.79
2023-03-01T16:15:18.086Z,8.59
2023-03-01T16:17:45.833Z,8.71
2023-03-01T16:20:27.180Z,8.67
2023-03-01T16:23:03.639Z,8.75
2023-03-01T16:25:33.192Z,8.78
2023-03-01T16:28:09.892Z,9.00
2023-03-01T16:30:40.741Z,8.76
2023-03-01T16:33:24.448Z,8.90
2023-03-01T16:35:57.687Z,8.82
2023-03-01T16:38:26.448Z,8.78
2023-03-01T16:40:54.241Z,8.81
2023-03-01T16:43:23.084Z,8.85
2023-03-01T16:45:51.900Z,8.94
2023-03-01T16:48:21.598Z,8.89
2023-03-01T16:50:57.616Z,8.80
2023-03-01T16:53:47.529Z,8.73
2023-03-01T16:56:30.001Z,8.78
2023-03-01T16:59:01.657Z,8.74
2023-03-01T17:01:40.983Z,8.74
2023-03-01T17:04:12.786Z,8.66
2023-03-01T17:06:43.594Z,8.70
2023-03-01T17:09:13.848Z,8.60
2023-03-01T17:11:45.221Z,8.57
2023-03-01T17:14:13.095Z,8.56
2023-03-01T17:16:43.448Z,8.48
2023-03-01T17:19:12.291Z,8.51
2023-03-01T17:21:42.640Z,8.56
2023-03-01T17:24:10.183Z,8.54
2023-03-01T17:26:39.158Z,8.38
2023-03-01T17:29:08.485Z,8.48
2023-03-01T17:31:39.472Z,8.32
2023-03-01T17:34:09.788Z,8.48
2023-03-01T17:36:43.976Z,8.13
2023-03-01T17:39:12.285Z,8.58
2023-03-01T17:41:41.195Z,8.20
2023-03-01T17:44:24.276Z,8.19
2023-03-01T17:46:51.815Z,8.39
2023-03-01T17:49:26.366Z,8.33
2023-03-01T17:51:58.710Z,8.29
2023-03-01T17:54:29.440Z,8.29
2023-03-01T17:56:58.856Z,8.22
2023-03-01T17:59:37.163Z,8.30
2023-03-01T18:02:06.571Z,8.26
2023-03-01T18:04:34.517Z,8.35
2023-03-01T18:07:03.095Z,8.38
2023-03-01T18:09:31.344Z,8.42
2023-03-01T18:12:00.293Z,8.21
2023-03-01T18:14:33.920Z,8.36
2023-03-01T18:17:06.796Z,8.38
2023-03-01T18:19:43.783Z,8.51
2023-03-01T18:22:11.315Z,8.54
2023-03-01T18:24:41.027Z,8.66
2023-03-01T18:27:09.322Z,8.51
2023-03-01T18:29:37.718Z,8.59
2023-03-01T18:32:06.065Z,8.61
2023-03-01T18:34:34.875Z,8.66
2023-03-01T18:37:09.485Z,8.50
2023-03-01T18:39:41.914Z,8.65
2023-03-01T18:42:19.051Z,8.78
2023-03-01T18:47:44.294Z,8.75
2023-03-01T18:50:14.799Z,8.76
2023-03-01T18:52:42.501Z,8.88
2023-03-01T18:55:11.641Z,8.66
2023-03-01T18:57:41.352Z,8.63
2023-03-01T19:00:09.836Z,8.57
2023-03-01T19:02:39.596Z,8.34
2023-03-01T19:05:09.296Z,8.43
2023-03-01T19:07:37.435Z,8.49
2023-03-01T19:10:07.773Z,8.52
2023-03-01T19:12:35.705Z,8.36
2023-03-01T19:15:04.498Z,8.22
2023-03-01T19:17:33.625Z,8.33
2023-03-01T19:20:01.436Z,8.43
2023-03-01T19:22:29.260Z,8.35
2023-03-01T19:25:02.132Z,8.44
2023-03-01T19:27:31.060Z,8.37
2023-03-01T19:30:01.841Z,8.34
2023-03-01T19:32:30.542Z,8.34
2023-03-01T19:35:00.874Z,8.39
2023-03-01T19:37:30.377Z,8.59
2023-03-01T19:40:00.541Z,8.68
2023-03-01T19:42:30.278Z,8.67
2023-03-01T19:45:00.322Z,8.76
2023-03-01T19:47:28.563Z,8.75
2023-03-01T19:49:56.426Z,8.84
2023-03-01T19:52:25.389Z,8.84
2023-03-01T19:55:03.863Z,8.82
2023-03-01T19:57:40.864Z,8.76
2023-03-01T20:00:25.582Z,8.82
2023-03-01T20:02:54.626Z,8.69
2023-03-01T20:05:22.090Z,8.63
2023-03-01T20:07:54.480Z,8.61
2023-03-01T20:10:23.185Z,8.57
2023-03-01T20:12:50.965Z,8.58
2023-03-01T20:15:22.990Z,8.53
2023-03-01T20:17:53.111Z,8.63
2023-03-01T20:20:32.141Z,8.53
2023-03-01T20:23:00.580Z,8.64
2023-03-01T20:25:28.091Z,8.56
2023-03-01T20:27:56.552Z,8.66
2023-03-01T20:30:24.544Z,8.61
2023-03-01T20:32:56.484Z,8.53
2023-03-01T20:35:23.919Z,8.46
2023-03-01T20:37:52.692Z,8.41
2023-03-01T20:40:26.704Z,8.40
2023-03-01T20:42:58.393Z,8.54
2023-03-01T20:45:28.188Z,8.57
2023-03-01T20:47:55.942Z,8.58
2023-03-01T20:50:24.109Z,8.64
2023-03-01T20:52:53.208Z,8.80
2023-03-01T20:55:20.848Z,8.71
2023-03-01T20:57:48.420Z,8.75
2023-03-01T21:00:17.648Z,8.78
2023-03-01T21:02:45.304Z,8.73
2023-03-01T21:05:13.725Z,8.87
2023-03-01T21:07:42.713Z,8.80
2023-03-01T21:10:11.227Z,8.73
2023-03-01T21:12:39.162Z,8.69
2023-03-01T21:15:08.618Z,8.66
2023-03-01T21:17:40.104Z,8.59
2023-03-01T21:20:08.425Z,8.65
2023-03-01T21:22:36.861Z,8.80
2023-03-01T21:25:06.250Z,8.65
2023-03-01T21:27:38.345Z,8.66
2023-03-01T21:30:06.719Z,8.68
2023-03-01T21:32:34.453Z,8.69
2023-03-01T21:35:02.212Z,8.75
2023-03-01T21:37:31.188Z,8.79
2023-03-01T21:39:58.809Z,8.76
2023-03-01T21:42:27.534Z,8.73
2023-03-01T21:44:55.049Z,8.82
2023-03-01T21:47:22.434Z,8.78
2023-03-01T21:49:50.253Z,8.73
2023-03-01T21:52:18.049Z,8.64
2023-03-01T21:54:46.542Z,8.64
2023-03-01T21:57:14.151Z,8.62
2023-03-01T21:59:46.717Z,8.49
2023-03-01T22:02:14.419Z,8.54
2023-03-01T22:04:43.173Z,8.55
2023-03-01T22:07:10.795Z,8.45
2023-03-01T22:09:38.844Z,8.48
2023-03-01T22:12:06.932Z,8.51
2023-03-01T22:14:34.744Z,8.41
2023-03-01T22:17:02.381Z,8.42
2023-03-01T22:19:32.446Z,8.49
2023-03-01T22:21:59.934Z,8.43
2023-03-01T22:24:28.893Z,8.36
2023-03-01T22:26:58.012Z,8.35
2023-03-01T22:29:29.003Z,8.45
2023-03-01T22:31:56.670Z,8.33
2023-03-01T22:34:24.213Z,8.31
2023-03-01T22:36:53.097Z,8.32
2023-03-01T22:39:25.317Z,8.56
2023-03-01T22:41:54.161Z,8.59
2023-03-01T22:44:23.405Z,8.49
2023-03-01T22:46:53.356Z,8.37
2023-03-01T22:49:22.335Z,8.49
2023-03-01T22:51:50.888Z,8.49
2023-03-01T22:54:18.921Z,8.21
2023-03-01T22:56:48.324Z,8.29
2023-03-01T22:59:20.225Z,8.19
2023-03-01T23:01:48.576Z,8.12
2023-03-01T23:04:18.496Z,8.27
2023-03-01T23:06:53.703Z,8.10
2023-03-01T23:09:21.577Z,8.26
2023-03-01T23:11:51.511Z,8.14
2023-03-01T23:14:19.488Z,8.16
2023-03-01T23:16:49.076Z,8.22
2023-03-01T23:19:19.489Z,8.02
2023-03-01T23:21:50.317Z,8.16
2023-03-01T23:24:20.080Z,8.10
2023-03-01T23:26:54.003Z,8.24
2023-03-01T23:29:21.937Z,8.22
2023-03-01T23:31:49.718Z,8.15
2023-03-01T23:34:17.535Z,8.25
2023-03-01T23:36:45.934Z,8.25
2023-03-01T23:39:13.618Z,8.18
2023-03-01T23:41:41.325Z,8.27
2023-03-01T23:44:44.570Z,8.28
2023-03-01T23:47:32.067Z,8.24
2023-03-01T23:50:03.155Z,8.18
2023-03-01T23:52:32.528Z,8.08
2023-03-01T23:55:02.642Z,8.17
2023-03-01T23:57:33.948Z,8.25
